ADDS METAR Data INFO
IDs: Format: Raw Decoded Include TAF

Data at: 1509 UTC 21 Feb 2018

KSRC 211356Z AUTO 02012KT 5SM -RA BR BKN008 OVC044 06/06 A3033 RMK AO2 SLP279 P0015 T00560056
KSRC 211335Z AUTO 35008KT 9SM RA BKN008 OVC085 06/06 A3037 RMK AO2 P0009
KSRC 211309Z AUTO 02010KT 10SM RA SCT008 SCT070 OVC080 06/06 A3034 RMK AO2 P0002
KSRC 211256Z AUTO 02013KT 10SM RA SCT008 BKN029 OVC080 06/06 A3033 RMK AO2 SLP280 P0016 T00560056
KSRC 211249Z AUTO 02009KT 10SM RA SCT008 BKN013 OVC070 06/06 A3033 RMK AO2 P0015
KSRC 201456Z AUTO 20010KT 10SM OVC014 21/19 A3008 RMK AO2 SLP193 6//// T02060194 53014
KSRC 201356Z AUTO 19009KT 10SM OVC014 20/19 A3006 RMK AO2 SLP187 T02000194
KSRC 201256Z AUTO 19015G19KT 10SM OVC014 20/19 A3003 RMK AO2 SLP178 T02000194
KSRC 201239Z AUTO 19011KT 10SM OVC014 19/19 A3003 RMK AO2
KSRC 201156Z AUTO 18007KT 10SM OVC016 19/19 A3004 RMK AO2 SLP179 6//// 7//// T01890189 10206 20183 53021
KSRC 201110Z AUTO 19008KT 10SM BKN024 19/18 A3002 RMK AO2
KSRC 201056Z AUTO 19009KT 10SM SCT026 SCT100 19/18 A3001 RMK AO2 SLP169 T01890183
KSRC 200956Z AUTO 18014G21KT 10SM CLR 19/17 A2999 RMK AO2 SLP162 T01890172
KSRC 200856Z AUTO 18019G24KT 10SM BKN070 20/17 A2998 RMK AO2 SLP157 6//// T02000172 58004
KSRC 200756Z AUTO 18014KT 10SM OVC060 20/17 A3000 RMK AO2 RAE29 SLP165 P0000 T02000172
KSRC 200656Z AUTO 19011KT 10SM -RA OVC070 20/17 A2999 RMK AO2 RAB06 SLP163 P0000 T02000172
KSRC 200556Z AUTO 18013KT 10SM OVC065 20/17 A2999 RMK AO2 SLP161 6//// T02000172 10206 20178 53008
KSRC 200456Z AUTO 17014KT 10SM SCT070 20/17 A2997 RMK AO2 SLP154 T02000172 402440100
KSRC 200356Z AUTO 18014G22KT 10SM CLR 21/17 A2997 RMK AO2 SLP155 T02060172